sensor_id;sensor_type;location;lat;lon;timestamp;P1;durP1;ratioP1;P2;durP2;ratioP2
14817;SDS011;7500;57.698;11.986;2023-03-22T00:02:37;52.50;;;18.20;;
14817;SDS011;7500;57.698;11.986;2023-03-22T00:06:04;53.47;;;20.30;;
14817;SDS011;7500;57.698;11.986;2023-03-22T00:09:29;50.40;;;20.07;;
14817;SDS011;7500;57.698;11.986;2023-03-22T00:12:54;53.33;;;19.60;;
14817;SDS011;7500;57.698;11.986;2023-03-22T00:16:20;61.27;;;19.37;;
14817;SDS011;7500;57.698;11.986;2023-03-22T00:19:47;59.23;;;20.67;;
14817;SDS011;7500;57.698;11.986;2023-03-22T00:23:14;50.47;;;19.97;;
14817;SDS011;7500;57.698;11.986;2023-03-22T00:26:39;61.37;;;21.50;;
14817;SDS011;7500;57.698;11.986;2023-03-22T00:30:05;63.30;;;21.03;;
14817;SDS011;7500;57.698;11.986;2023-03-22T00:33:32;50.83;;;19.93;;
14817;SDS011;7500;57.698;11.986;2023-03-22T00:36:58;67.23;;;22.67;;
14817;SDS011;7500;57.698;11.986;2023-03-22T00:40:31;63.30;;;22.97;;
14817;SDS011;7500;57.698;11.986;2023-03-22T00:43:56;80.93;;;24.63;;
14817;SDS011;7500;57.698;11.986;2023-03-22T00:47:22;59.03;;;21.27;;
14817;SDS011;7500;57.698;11.986;2023-03-22T00:50:47;69.70;;;25.00;;
14817;SDS011;7500;57.698;11.986;2023-03-22T00:54:13;64.23;;;23.33;;
14817;SDS011;7500;57.698;11.986;2023-03-22T00:57:39;49.57;;;18.03;;
14817;SDS011;7500;57.698;11.986;2023-03-22T01:01:05;55.33;;;20.23;;
14817;SDS011;7500;57.698;11.986;2023-03-22T01:04:32;44.47;;;17.13;;
14817;SDS011;7500;57.698;11.986;2023-03-22T01:07:59;39.80;;;15.87;;
14817;SDS011;7500;57.698;11.986;2023-03-22T01:11:24;44.47;;;15.33;;
14817;SDS011;7500;57.698;11.986;2023-03-22T01:14:52;27.07;;;11.20;;
14817;SDS011;7500;57.698;11.986;2023-03-22T01:18:17;33.07;;;11.17;;
14817;SDS011;7500;57.698;11.986;2023-03-22T01:21:43;27.67;;;10.53;;
14817;SDS011;7500;57.698;11.986;2023-03-22T01:25:08;27.73;;;9.97;;
14817;SDS011;7500;57.698;11.986;2023-03-22T01:28:34;22.37;;;9.40;;
14817;SDS011;7500;57.698;11.986;2023-03-22T01:32:01;36.00;;;11.30;;
14817;SDS011;7500;57.698;11.986;2023-03-22T01:35:27;36.47;;;12.67;;
14817;SDS011;7500;57.698;11.986;2023-03-22T01:38:52;50.27;;;15.43;;
14817;SDS011;7500;57.698;11.986;2023-03-22T01:42:17;51.70;;;15.97;;
14817;SDS011;7500;57.698;11.986;2023-03-22T01:45:43;75.50;;;19.63;;
14817;SDS011;7500;57.698;11.986;2023-03-22T01:49:11;84.30;;;20.67;;
14817;SDS011;7500;57.698;11.986;2023-03-22T01:52:39;62.23;;;16.67;;
14817;SDS011;7500;57.698;11.986;2023-03-22T01:56:07;89.47;;;20.43;;
14817;SDS011;7500;57.698;11.986;2023-03-22T01:59:33;76.63;;;19.67;;
14817;SDS011;7500;57.698;11.986;2023-03-22T02:02:59;72.87;;;19.43;;
14817;SDS011;7500;57.698;11.986;2023-03-22T02:06:29;83.63;;;21.50;;
14817;SDS011;7500;57.698;11.986;2023-03-22T02:09:55;127.10;;;23.40;;
14817;SDS011;7500;57.698;11.986;2023-03-22T02:13:26;101.97;;;22.73;;
14817;SDS011;7500;57.698;11.986;2023-03-22T02:17:09;87.43;;;21.40;;
14817;SDS011;7500;57.698;11.986;2023-03-22T02:20:49;81.80;;;20.97;;
14817;SDS011;7500;57.698;11.986;2023-03-22T02:24:34;104.03;;;21.67;;
14817;SDS011;7500;57.698;11.986;2023-03-22T02:28:25;86.20;;;21.23;;
14817;SDS011;7500;57.698;11.986;2023-03-22T02:32:11;80.60;;;20.63;;
14817;SDS011;7500;57.698;11.986;2023-03-22T02:36:04;88.40;;;22.07;;
14817;SDS011;7500;57.698;11.986;2023-03-22T02:39:45;83.70;;;22.43;;
14817;SDS011;7500;57.698;11.986;2023-03-22T02:43:17;85.67;;;22.63;;
14817;SDS011;7500;57.698;11.986;2023-03-22T02:46:52;79.27;;;22.03;;
14817;SDS011;7500;57.698;11.986;2023-03-22T02:50:21;73.90;;;21.40;;
14817;SDS011;7500;57.698;11.986;2023-03-22T02:53:53;63.43;;;18.50;;
14817;SDS011;7500;57.698;11.986;2023-03-22T02:57:29;54.13;;;17.70;;
14817;SDS011;7500;57.698;11.986;2023-03-22T03:01:02;70.80;;;21.17;;
14817;SDS011;7500;57.698;11.986;2023-03-22T03:04:30;74.00;;;20.57;;
14817;SDS011;7500;57.698;11.986;2023-03-22T03:07:58;61.37;;;19.27;;
14817;SDS011;7500;57.698;11.986;2023-03-22T03:11:28;72.33;;;21.33;;
14817;SDS011;7500;57.698;11.986;2023-03-22T03:14:54;67.10;;;20.10;;
14817;SDS011;7500;57.698;11.986;2023-03-22T03:18:25;62.07;;;20.20;;
14817;SDS011;7500;57.698;11.986;2023-03-22T03:21:59;65.37;;;20.70;;
14817;SDS011;7500;57.698;11.986;2023-03-22T03:25:34;78.53;;;22.50;;
14817;SDS011;7500;57.698;11.986;2023-03-22T03:29:06;63.37;;;21.67;;
14817;SDS011;7500;57.698;11.986;2023-03-22T03:32:38;62.10;;;20.70;;
14817;SDS011;7500;57.698;11.986;2023-03-22T03:36:10;64.90;;;21.43;;
14817;SDS011;7500;57.698;11.986;2023-03-22T03:39:40;66.57;;;20.57;;
14817;SDS011;7500;57.698;11.986;2023-03-22T03:43:11;67.83;;;21.87;;
14817;SDS011;7500;57.698;11.986;2023-03-22T03:46:37;67.10;;;21.47;;
14817;SDS011;7500;57.698;11.986;2023-03-22T03:50:03;61.50;;;21.17;;
14817;SDS011;7500;57.698;11.986;2023-03-22T03:53:30;74.40;;;23.90;;
14817;SDS011;7500;57.698;11.986;2023-03-22T03:56:55;61.70;;;21.80;;
14817;SDS011;7500;57.698;11.986;2023-03-22T04:00:22;55.00;;;20.80;;
14817;SDS011;7500;57.698;11.986;2023-03-22T04:03:48;57.13;;;21.33;;
14817;SDS011;7500;57.698;11.986;2023-03-22T04:07:13;56.87;;;21.17;;
14817;SDS011;7500;57.698;11.986;2023-03-22T04:10:39;59.20;;;20.73;;
14817;SDS011;7500;57.698;11.986;2023-03-22T04:14:04;51.27;;;20.43;;
14817;SDS011;7500;57.698;11.986;2023-03-22T04:17:31;52.53;;;20.33;;
14817;SDS011;7500;57.698;11.986;2023-03-22T04:20:57;48.40;;;17.27;;
14817;SDS011;7500;57.698;11.986;2023-03-22T04:24:22;48.07;;;19.10;;
14817;SDS011;7500;57.698;11.986;2023-03-22T04:27:47;45.20;;;18.87;;
14817;SDS011;7500;57.698;11.986;2023-03-22T04:31:13;47.63;;;20.17;;
14817;SDS011;7500;57.698;11.986;2023-03-22T04:34:40;54.57;;;19.53;;
14817;SDS011;7500;57.698;11.986;2023-03-22T04:38:05;40.17;;;17.37;;
14817;SDS011;7500;57.698;11.986;2023-03-22T04:41:32;44.53;;;17.90;;
14817;SDS011;7500;57.698;11.986;2023-03-22T04:44:57;43.40;;;19.53;;
14817;SDS011;7500;57.698;11.986;2023-03-22T04:48:25;42.47;;;17.77;;
14817;SDS011;7500;57.698;11.986;2023-03-22T04:51:53;48.53;;;19.20;;
14817;SDS011;7500;57.698;11.986;2023-03-22T04:55:19;42.27;;;17.97;;
14817;SDS011;7500;57.698;11.986;2023-03-22T04:58:44;44.03;;;18.00;;
14817;SDS011;7500;57.698;11.986;2023-03-22T05:02:10;43.00;;;18.07;;
14817;SDS011;7500;57.698;11.986;2023-03-22T05:05:36;42.10;;;18.77;;
14817;SDS011;7500;57.698;11.986;2023-03-22T05:09:02;42.77;;;17.93;;
14817;SDS011;7500;57.698;11.986;2023-03-22T05:12:28;54.00;;;19.27;;
14817;SDS011;7500;57.698;11.986;2023-03-22T05:15:54;51.97;;;19.03;;
14817;SDS011;7500;57.698;11.986;2023-03-22T05:19:19;47.17;;;18.27;;
14817;SDS011;7500;57.698;11.986;2023-03-22T05:22:44;47.23;;;17.57;;
14817;SDS011;7500;57.698;11.986;2023-03-22T05:26:12;58.03;;;22.73;;
14817;SDS011;7500;57.698;11.986;2023-03-22T05:29:38;40.20;;;16.07;;
14817;SDS011;7500;57.698;11.986;2023-03-22T05:33:03;43.60;;;17.23;;
14817;SDS011;7500;57.698;11.986;2023-03-22T05:36:29;42.43;;;16.97;;
14817;SDS011;7500;57.698;11.986;2023-03-22T05:39:55;44.23;;;16.27;;
14817;SDS011;7500;57.698;11.986;2023-03-22T05:43:21;45.20;;;15.33;;
14817;SDS011;7500;57.698;11.986;2023-03-22T05:46:47;44.60;;;17.13;;
14817;SDS011;7500;57.698;11.986;2023-03-22T05:50:13;41.70;;;16.27;;
14817;SDS011;7500;57.698;11.986;2023-03-22T05:53:42;53.43;;;17.00;;
14817;SDS011;7500;57.698;11.986;2023-03-22T05:57:07;44.57;;;17.10;;
14817;SDS011;7500;57.698;11.986;2023-03-22T06:00:34;47.03;;;17.03;;
14817;SDS011;7500;57.698;11.986;2023-03-22T06:04:00;45.00;;;16.03;;
14817;SDS011;7500;57.698;11.986;2023-03-22T06:07:25;53.20;;;16.57;;
14817;SDS011;7500;57.698;11.986;2023-03-22T06:10:50;56.07;;;17.77;;
14817;SDS011;7500;57.698;11.986;2023-03-22T06:14:16;44.27;;;15.87;;
14817;SDS011;7500;57.698;11.986;2023-03-22T06:17:43;46.87;;;16.00;;
14817;SDS011;7500;57.698;11.986;2023-03-22T06:21:08;48.50;;;16.43;;
14817;SDS011;7500;57.698;11.986;2023-03-22T06:24:34;39.10;;;15.23;;
14817;SDS011;7500;57.698;11.986;2023-03-22T06:27:59;47.73;;;17.40;;
14817;SDS011;7500;57.698;11.986;2023-03-22T06:31:27;40.03;;;15.43;;
14817;SDS011;7500;57.698;11.986;2023-03-22T06:34:54;45.93;;;16.60;;
14817;SDS011;7500;57.698;11.986;2023-03-22T06:38:20;45.77;;;16.43;;
14817;SDS011;7500;57.698;11.986;2023-03-22T06:41:45;38.47;;;16.17;;
14817;SDS011;7500;57.698;11.986;2023-03-22T06:45:11;37.17;;;15.87;;
14817;SDS011;7500;57.698;11.986;2023-03-22T06:48:36;36.20;;;15.50;;
14817;SDS011;7500;57.698;11.986;2023-03-22T06:52:03;36.40;;;16.23;;
14817;SDS011;7500;57.698;11.986;2023-03-22T06:55:29;38.00;;;16.53;;
14817;SDS011;7500;57.698;11.986;2023-03-22T06:58:54;40.53;;;16.30;;
14817;SDS011;7500;57.698;11.986;2023-03-22T07:02:20;46.80;;;17.60;;
14817;SDS011;7500;57.698;11.986;2023-03-22T07:05:46;44.73;;;17.50;;
14817;SDS011;7500;57.698;11.986;2023-03-22T07:09:13;48.80;;;18.53;;
14817;SDS011;7500;57.698;11.986;2023-03-22T07:12:39;49.40;;;17.30;;
14817;SDS011;7500;57.698;11.986;2023-03-22T07:16:05;44.83;;;17.73;;
14817;SDS011;7500;57.698;11.986;2023-03-22T07:19:31;43.77;;;18.13;;
14817;SDS011;7500;57.698;11.986;2023-03-22T07:23:00;50.23;;;19.77;;
14817;SDS011;7500;57.698;11.986;2023-03-22T07:26:27;47.03;;;19.03;;
14817;SDS011;7500;57.698;11.986;2023-03-22T07:29:53;59.93;;;20.77;;
14817;SDS011;7500;57.698;11.986;2023-03-22T07:33:25;50.73;;;20.00;;
14817;SDS011;7500;57.698;11.986;2023-03-22T07:36:50;55.80;;;20.70;;
14817;SDS011;7500;57.698;11.986;2023-03-22T07:40:18;46.97;;;20.57;;
14817;SDS011;7500;57.698;11.986;2023-03-22T07:43:45;52.50;;;21.13;;
14817;SDS011;7500;57.698;11.986;2023-03-22T07:47:13;51.00;;;21.90;;
14817;SDS011;7500;57.698;11.986;2023-03-22T07:50:39;61.47;;;23.00;;
14817;SDS011;7500;57.698;11.986;2023-03-22T07:54:04;56.47;;;24.03;;
14817;SDS011;7500;57.698;11.986;2023-03-22T07:57:30;50.63;;;23.73;;
14817;SDS011;7500;57.698;11.986;2023-03-22T08:00:57;53.40;;;24.33;;
14817;SDS011;7500;57.698;11.986;2023-03-22T08:04:22;59.80;;;25.53;;
14817;SDS011;7500;57.698;11.986;2023-03-22T08:07:48;59.83;;;24.10;;
14817;SDS011;7500;57.698;11.986;2023-03-22T08:11:13;60.87;;;24.70;;
14817;SDS011;7500;57.698;11.986;2023-03-22T08:14:38;57.73;;;25.23;;
14817;SDS011;7500;57.698;11.986;2023-03-22T08:18:05;56.97;;;24.13;;
14817;SDS011;7500;57.698;11.986;2023-03-22T08:21:31;54.90;;;24.23;;
14817;SDS011;7500;57.698;11.986;2023-03-22T08:24:56;53.07;;;23.83;;
14817;SDS011;7500;57.698;11.986;2023-03-22T08:28:22;52.40;;;23.90;;
14817;SDS011;7500;57.698;11.986;2023-03-22T08:31:48;52.17;;;24.43;;
14817;SDS011;7500;57.698;11.986;2023-03-22T08:35:14;59.53;;;27.57;;
14817;SDS011;7500;57.698;11.986;2023-03-22T08:38:41;57.77;;;27.37;;
14817;SDS011;7500;57.698;11.986;2023-03-22T08:42:08;58.17;;;26.40;;
14817;SDS011;7500;57.698;11.986;2023-03-22T08:45:33;60.80;;;27.53;;
14817;SDS011;7500;57.698;11.986;2023-03-22T08:48:59;61.23;;;28.47;;
14817;SDS011;7500;57.698;11.986;2023-03-22T08:52:26;59.37;;;26.37;;
14817;SDS011;7500;57.698;11.986;2023-03-22T08:55:51;54.37;;;26.47;;
14817;SDS011;7500;57.698;11.986;2023-03-22T08:59:16;55.97;;;25.20;;
14817;SDS011;7500;57.698;11.986;2023-03-22T09:02:43;54.83;;;24.97;;
14817;SDS011;7500;57.698;11.986;2023-03-22T09:06:09;48.33;;;25.03;;
14817;SDS011;7500;57.698;11.986;2023-03-22T09:09:36;55.23;;;25.67;;
14817;SDS011;7500;57.698;11.986;2023-03-22T09:13:03;52.97;;;24.90;;
14817;SDS011;7500;57.698;11.986;2023-03-22T09:16:28;53.23;;;24.57;;
14817;SDS011;7500;57.698;11.986;2023-03-22T09:19:54;51.87;;;24.67;;
14817;SDS011;7500;57.698;11.986;2023-03-22T09:23:19;53.30;;;24.87;;
14817;SDS011;7500;57.698;11.986;2023-03-22T09:26:47;54.70;;;24.67;;
14817;SDS011;7500;57.698;11.986;2023-03-22T09:30:12;48.77;;;22.70;;
14817;SDS011;7500;57.698;11.986;2023-03-22T09:33:38;62.10;;;25.00;;
14817;SDS011;7500;57.698;11.986;2023-03-22T09:37:05;61.17;;;24.60;;
14817;SDS011;7500;57.698;11.986;2023-03-22T09:40:31;65.70;;;25.73;;
14817;SDS011;7500;57.698;11.986;2023-03-22T09:44:06;57.40;;;24.87;;
14817;SDS011;7500;57.698;11.986;2023-03-22T09:47:39;52.90;;;22.17;;
14817;SDS011;7500;57.698;11.986;2023-03-22T09:51:12;52.20;;;20.67;;
14817;SDS011;7500;57.698;11.986;2023-03-22T09:54:42;48.13;;;20.07;;
14817;SDS011;7500;57.698;11.986;2023-03-22T09:58:13;39.33;;;19.27;;
14817;SDS011;7500;57.698;11.986;2023-03-22T10:01:49;33.13;;;18.27;;
14817;SDS011;7500;57.698;11.986;2023-03-22T10:05:22;39.70;;;18.13;;
14817;SDS011;7500;57.698;11.986;2023-03-22T10:08:53;37.83;;;18.23;;
14817;SDS011;7500;57.698;11.986;2023-03-22T10:12:27;49.33;;;20.33;;
14817;SDS011;7500;57.698;11.986;2023-03-22T10:15:59;52.03;;;20.43;;
14817;SDS011;7500;57.698;11.986;2023-03-22T10:19:30;59.83;;;22.37;;
14817;SDS011;7500;57.698;11.986;2023-03-22T10:23:02;45.13;;;21.13;;
14817;SDS011;7500;57.698;11.986;2023-03-22T10:26:34;47.33;;;19.50;;
14817;SDS011;7500;57.698;11.986;2023-03-22T10:30:04;51.43;;;21.73;;
14817;SDS011;7500;57.698;11.986;2023-03-22T10:33:38;46.30;;;20.43;;
14817;SDS011;7500;57.698;11.986;2023-03-22T10:37:05;46.10;;;19.67;;
14817;SDS011;7500;57.698;11.986;2023-03-22T10:40:34;39.97;;;19.80;;
14817;SDS011;7500;57.698;11.986;2023-03-22T10:44:01;44.50;;;20.13;;
14817;SDS011;7500;57.698;11.986;2023-03-22T10:47:33;39.70;;;19.40;;
14817;SDS011;7500;57.698;11.986;2023-03-22T10:51:01;41.07;;;19.30;;
14817;SDS011;7500;57.698;11.986;2023-03-22T10:54:28;44.80;;;20.00;;
14817;SDS011;7500;57.698;11.986;2023-03-22T10:57:56;43.17;;;20.60;;
14817;SDS011;7500;57.698;11.986;2023-03-22T11:01:24;36.37;;;18.77;;
14817;SDS011;7500;57.698;11.986;2023-03-22T11:04:52;38.90;;;18.83;;
14817;SDS011;7500;57.698;11.986;2023-03-22T11:08:23;40.97;;;23.88;;
14817;SDS011;7500;57.698;11.986;2023-03-22T11:11:50;39.13;;;20.30;;
14817;SDS011;7500;57.698;11.986;2023-03-22T11:15:21;39.57;;;20.03;;
14817;SDS011;7500;57.698;11.986;2023-03-22T11:18:48;35.20;;;20.00;;
14817;SDS011;7500;57.698;11.986;2023-03-22T11:22:20;34.80;;;18.70;;
14817;SDS011;7500;57.698;11.986;2023-03-22T11:25:49;32.67;;;17.93;;
14817;SDS011;7500;57.698;11.986;2023-03-22T11:29:27;27.07;;;16.13;;
14817;SDS011;7500;57.698;11.986;2023-03-22T11:33:01;22.77;;;12.97;;
14817;SDS011;7500;57.698;11.986;2023-03-22T11:36:27;23.57;;;14.40;;
14817;SDS011;7500;57.698;11.986;2023-03-22T11:39:58;23.37;;;13.23;;
14817;SDS011;7500;57.698;11.986;2023-03-22T11:43:26;20.43;;;13.87;;
14817;SDS011;7500;57.698;11.986;2023-03-22T11:46:54;23.53;;;14.10;;
14817;SDS011;7500;57.698;11.986;2023-03-22T11:50:25;25.83;;;13.70;;
14817;SDS011;7500;57.698;11.986;2023-03-22T11:54:05;26.97;;;14.37;;
14817;SDS011;7500;57.698;11.986;2023-03-22T11:57:31;22.40;;;13.37;;
14817;SDS011;7500;57.698;11.986;2023-03-22T12:01:09;22.30;;;12.33;;
14817;SDS011;7500;57.698;11.986;2023-03-22T12:04:42;27.20;;;13.27;;
14817;SDS011;7500;57.698;11.986;2023-03-22T12:08:12;25.50;;;13.80;;
14817;SDS011;7500;57.698;11.986;2023-03-22T12:11:50;24.13;;;12.87;;
14817;SDS011;7500;57.698;11.986;2023-03-22T12:15:19;27.57;;;13.50;;
14817;SDS011;7500;57.698;11.986;2023-03-22T12:18:49;22.50;;;12.57;;
14817;SDS011;7500;57.698;11.986;2023-03-22T12:22:19;28.63;;;12.50;;
14817;SDS011;7500;57.698;11.986;2023-03-22T12:25:49;22.50;;;11.23;;
14817;SDS011;7500;57.698;11.986;2023-03-22T12:29:17;30.07;;;12.07;;
14817;SDS011;7500;57.698;11.986;2023-03-22T12:32:46;28.37;;;12.07;;
14817;SDS011;7500;57.698;11.986;2023-03-22T12:36:15;23.40;;;11.57;;
14817;SDS011;7500;57.698;11.986;2023-03-22T12:39:45;28.67;;;12.93;;
14817;SDS011;7500;57.698;11.986;2023-03-22T12:43:14;24.87;;;14.30;;
14817;SDS011;7500;57.698;11.986;2023-03-22T12:46:44;25.20;;;14.37;;
14817;SDS011;7500;57.698;11.986;2023-03-22T12:50:14;21.57;;;13.70;;
14817;SDS011;7500;57.698;11.986;2023-03-22T12:53:41;25.57;;;14.17;;
14817;SDS011;7500;57.698;11.986;2023-03-22T12:57:08;19.97;;;12.67;;
14817;SDS011;7500;57.698;11.986;2023-03-22T13:00:37;26.43;;;13.70;;
14817;SDS011;7500;57.698;11.986;2023-03-22T13:04:27;22.70;;;12.77;;
14817;SDS011;7500;57.698;11.986;2023-03-22T13:07:55;29.80;;;13.73;;
14817;SDS011;7500;57.698;11.986;2023-03-22T13:11:28;25.87;;;13.50;;
14817;SDS011;7500;57.698;11.986;2023-03-22T13:14:57;24.23;;;13.87;;
14817;SDS011;7500;57.698;11.986;2023-03-22T13:18:30;23.70;;;12.87;;
14817;SDS011;7500;57.698;11.986;2023-03-22T13:22:14;26.57;;;13.40;;
14817;SDS011;7500;57.698;11.986;2023-03-22T13:26:02;29.03;;;12.97;;
14817;SDS011;7500;57.698;11.986;2023-03-22T13:29:35;23.20;;;11.27;;
14817;SDS011;7500;57.698;11.986;2023-03-22T13:33:18;18.53;;;10.60;;
14817;SDS011;7500;57.698;11.986;2023-03-22T13:36:50;21.70;;;11.97;;
14817;SDS011;7500;57.698;11.986;2023-03-22T13:40:26;28.67;;;11.97;;
14817;SDS011;7500;57.698;11.986;2023-03-22T13:43:53;18.23;;;10.33;;
14817;SDS011;7500;57.698;11.986;2023-03-22T13:47:29;20.67;;;11.53;;
14817;SDS011;7500;57.698;11.986;2023-03-22T13:51:07;17.30;;;9.57;;
14817;SDS011;7500;57.698;11.986;2023-03-22T13:54:36;22.43;;;10.07;;
14817;SDS011;7500;57.698;11.986;2023-03-22T13:58:08;23.03;;;11.30;;
14817;SDS011;7500;57.698;11.986;2023-03-22T14:01:35;22.20;;;11.97;;
14817;SDS011;7500;57.698;11.986;2023-03-22T14:05:12;17.00;;;10.30;;
14817;SDS011;7500;57.698;11.986;2023-03-22T14:08:42;22.13;;;12.13;;
14817;SDS011;7500;57.698;11.986;2023-03-22T14:12:12;26.77;;;12.57;;
14817;SDS011;7500;57.698;11.986;2023-03-22T14:15:44;22.70;;;12.20;;
14817;SDS011;7500;57.698;11.986;2023-03-22T14:19:15;25.67;;;12.43;;
14817;SDS011;7500;57.698;11.986;2023-03-22T14:22:45;28.03;;;12.70;;
14817;SDS011;7500;57.698;11.986;2023-03-22T14:26:14;26.07;;;11.57;;
14817;SDS011;7500;57.698;11.986;2023-03-22T14:29:44;26.40;;;12.27;;
14817;SDS011;7500;57.698;11.986;2023-03-22T14:33:11;22.47;;;12.73;;
14817;SDS011;7500;57.698;11.986;2023-03-22T14:36:43;28.03;;;13.37;;
14817;SDS011;7500;57.698;11.986;2023-03-22T14:40:13;28.27;;;12.97;;
14817;SDS011;7500;57.698;11.986;2023-03-22T14:43:40;24.60;;;11.73;;
14817;SDS011;7500;57.698;11.986;2023-03-22T14:47:11;25.93;;;12.77;;
14817;SDS011;7500;57.698;11.986;2023-03-22T14:50:44;22.90;;;12.63;;
14817;SDS011;7500;57.698;11.986;2023-03-22T14:54:14;33.57;;;13.70;;
14817;SDS011;7500;57.698;11.986;2023-03-22T14:57:45;30.23;;;13.73;;
14817;SDS011;7500;57.698;11.986;2023-03-22T15:01:14;29.83;;;11.40;;
14817;SDS011;7500;57.698;11.986;2023-03-22T15:04:47;33.70;;;12.87;;
14817;SDS011;7500;57.698;11.986;2023-03-22T15:08:21;32.77;;;12.67;;
14817;SDS011;7500;57.698;11.986;2023-03-22T15:11:47;27.23;;;13.27;;
14817;SDS011;7500;57.698;11.986;2023-03-22T15:15:15;27.73;;;12.70;;
14817;SDS011;7500;57.698;11.986;2023-03-22T15:18:43;34.70;;;12.80;;
14817;SDS011;7500;57.698;11.986;2023-03-22T15:22:12;33.13;;;13.20;;
14817;SDS011;7500;57.698;11.986;2023-03-22T15:25:43;37.57;;;13.80;;
14817;SDS011;7500;57.698;11.986;2023-03-22T15:29:10;34.57;;;13.27;;
14817;SDS011;7500;57.698;11.986;2023-03-22T15:32:43;35.13;;;13.73;;
14817;SDS011;7500;57.698;11.986;2023-03-22T15:36:10;35.77;;;12.53;;
14817;SDS011;7500;57.698;11.986;2023-03-22T15:39:39;37.13;;;13.43;;
14817;SDS011;7500;57.698;11.986;2023-03-22T15:43:09;36.40;;;13.50;;
14817;SDS011;7500;57.698;11.986;2023-03-22T15:46:48;28.33;;;13.00;;
14817;SDS011;7500;57.698;11.986;2023-03-22T15:50:16;32.67;;;13.00;;
14817;SDS011;7500;57.698;11.986;2023-03-22T15:53:43;31.13;;;11.40;;
14817;SDS011;7500;57.698;11.986;2023-03-22T15:57:16;27.53;;;10.87;;
14817;SDS011;7500;57.698;11.986;2023-03-22T16:00:53;25.30;;;10.80;;
14817;SDS011;7500;57.698;11.986;2023-03-22T16:04:21;24.23;;;10.07;;
14817;SDS011;7500;57.698;11.986;2023-03-22T16:07:47;20.43;;;10.10;;
14817;SDS011;7500;57.698;11.986;2023-03-22T16:11:13;28.57;;;11.97;;
14817;SDS011;7500;57.698;11.986;2023-03-22T16:14:43;26.67;;;10.77;;
14817;SDS011;7500;57.698;11.986;2023-03-22T16:18:08;31.07;;;11.40;;
14817;SDS011;7500;57.698;11.986;2023-03-22T16:21:37;27.83;;;11.10;;
14817;SDS011;7500;57.698;11.986;2023-03-22T16:25:03;28.10;;;10.63;;
14817;SDS011;7500;57.698;11.986;2023-03-22T16:28:29;27.97;;;10.13;;
14817;SDS011;7500;57.698;11.986;2023-03-22T16:31:56;29.27;;;10.67;;
14817;SDS011;7500;57.698;11.986;2023-03-22T16:35:22;30.47;;;10.03;;
14817;SDS011;7500;57.698;11.986;2023-03-22T16:38:48;24.73;;;10.03;;
14817;SDS011;7500;57.698;11.986;2023-03-22T16:42:14;23.90;;;8.60;;
14817;SDS011;7500;57.698;11.986;2023-03-22T16:45:40;26.70;;;8.43;;
14817;SDS011;7500;57.698;11.986;2023-03-22T16:49:07;21.03;;;8.47;;
14817;SDS011;7500;57.698;11.986;2023-03-22T16:52:33;23.53;;;6.87;;
14817;SDS011;7500;57.698;11.986;2023-03-22T16:55:58;25.33;;;8.57;;
14817;SDS011;7500;57.698;11.986;2023-03-22T16:59:24;19.53;;;7.40;;
14817;SDS011;7500;57.698;11.986;2023-03-22T17:02:51;17.23;;;7.37;;
14817;SDS011;7500;57.698;11.986;2023-03-22T17:06:20;19.67;;;6.67;;
14817;SDS011;7500;57.698;11.986;2023-03-22T17:09:49;24.00;;;7.83;;
14817;SDS011;7500;57.698;11.986;2023-03-22T17:13:14;23.73;;;7.53;;
14817;SDS011;7500;57.698;11.986;2023-03-22T17:16:40;18.17;;;7.50;;
14817;SDS011;7500;57.698;11.986;2023-03-22T17:20:05;18.90;;;6.43;;
14817;SDS011;7500;57.698;11.986;2023-03-22T17:23:33;19.23;;;6.47;;
14817;SDS011;7500;57.698;11.986;2023-03-22T17:26:58;17.20;;;6.60;;
14817;SDS011;7500;57.698;11.986;2023-03-22T17:30:25;18.43;;;6.57;;
14817;SDS011;7500;57.698;11.986;2023-03-22T17:33:51;14.43;;;5.23;;
14817;SDS011;7500;57.698;11.986;2023-03-22T17:37:16;15.33;;;5.20;;
14817;SDS011;7500;57.698;11.986;2023-03-22T17:40:43;18.13;;;4.97;;
14817;SDS011;7500;57.698;11.986;2023-03-22T17:44:09;19.63;;;5.10;;
14817;SDS011;7500;57.698;11.986;2023-03-22T17:47:41;16.30;;;4.87;;
14817;SDS011;7500;57.698;11.986;2023-03-22T17:51:07;13.43;;;4.60;;
14817;SDS011;7500;57.698;11.986;2023-03-22T17:54:33;13.07;;;5.27;;
14817;SDS011;7500;57.698;11.986;2023-03-22T17:58:02;13.37;;;4.83;;
14817;SDS011;7500;57.698;11.986;2023-03-22T18:01:27;16.50;;;5.40;;
14817;SDS011;7500;57.698;11.986;2023-03-22T18:04:53;13.63;;;5.13;;
14817;SDS011;7500;57.698;11.986;2023-03-22T18:08:18;15.67;;;4.80;;
14817;SDS011;7500;57.698;11.986;2023-03-22T18:11:45;14.87;;;4.37;;
14817;SDS011;7500;57.698;11.986;2023-03-22T18:15:13;14.50;;;4.80;;
14817;SDS011;7500;57.698;11.986;2023-03-22T18:18:40;16.40;;;5.03;;
14817;SDS011;7500;57.698;11.986;2023-03-22T18:22:05;12.33;;;4.67;;
14817;SDS011;7500;57.698;11.986;2023-03-22T18:25:30;18.00;;;4.33;;
14817;SDS011;7500;57.698;11.986;2023-03-22T18:28:57;18.73;;;4.70;;
14817;SDS011;7500;57.698;11.986;2023-03-22T18:32:23;13.73;;;4.63;;
14817;SDS011;7500;57.698;11.986;2023-03-22T18:35:50;17.87;;;4.40;;
14817;SDS011;7500;57.698;11.986;2023-03-22T18:39:16;19.40;;;4.50;;
14817;SDS011;7500;57.698;11.986;2023-03-22T18:42:43;17.60;;;3.90;;
14817;SDS011;7500;57.698;11.986;2023-03-22T18:46:09;12.60;;;3.60;;
14817;SDS011;7500;57.698;11.986;2023-03-22T18:49:42;18.37;;;4.60;;
14817;SDS011;7500;57.698;11.986;2023-03-22T18:53:08;20.73;;;4.20;;
14817;SDS011;7500;57.698;11.986;2023-03-22T18:56:34;20.73;;;4.67;;
14817;SDS011;7500;57.698;11.986;2023-03-22T19:00:00;19.57;;;5.80;;
14817;SDS011;7500;57.698;11.986;2023-03-22T19:03:27;22.77;;;5.07;;
14817;SDS011;7500;57.698;11.986;2023-03-22T19:06:54;21.07;;;5.40;;
14817;SDS011;7500;57.698;11.986;2023-03-22T19:10:20;17.43;;;4.27;;
14817;SDS011;7500;57.698;11.986;2023-03-22T19:13:46;15.53;;;3.83;;
14817;SDS011;7500;57.698;11.986;2023-03-22T19:17:12;25.30;;;4.30;;
14817;SDS011;7500;57.698;11.986;2023-03-22T19:20:37;27.43;;;4.50;;
14817;SDS011;7500;57.698;11.986;2023-03-22T19:24:05;19.63;;;4.87;;
14817;SDS011;7500;57.698;11.986;2023-03-22T19:27:31;22.37;;;4.77;;
14817;SDS011;7500;57.698;11.986;2023-03-22T19:30:56;20.03;;;4.70;;
14817;SDS011;7500;57.698;11.986;2023-03-22T19:34:22;22.50;;;5.70;;
14817;SDS011;7500;57.698;11.986;2023-03-22T19:37:48;21.70;;;5.30;;
14817;SDS011;7500;57.698;11.986;2023-03-22T19:41:14;27.67;;;5.67;;
14817;SDS011;7500;57.698;11.986;2023-03-22T19:44:41;32.80;;;5.40;;
14817;SDS011;7500;57.698;11.986;2023-03-22T19:48:06;28.30;;;5.30;;
14817;SDS011;7500;57.698;11.986;2023-03-22T19:51:32;20.73;;;5.43;;
14817;SDS011;7500;57.698;11.986;2023-03-22T19:54:57;26.83;;;5.53;;
14817;SDS011;7500;57.698;11.986;2023-03-22T19:58:25;24.40;;;5.43;;
14817;SDS011;7500;57.698;11.986;2023-03-22T20:01:51;21.20;;;4.50;;
14817;SDS011;7500;57.698;11.986;2023-03-22T20:05:17;26.83;;;5.37;;
14817;SDS011;7500;57.698;11.986;2023-03-22T20:08:42;21.90;;;5.17;;
14817;SDS011;7500;57.698;11.986;2023-03-22T20:12:08;23.87;;;4.53;;
14817;SDS011;7500;57.698;11.986;2023-03-22T20:15:35;27.03;;;4.70;;
14817;SDS011;7500;57.698;11.986;2023-03-22T20:19:01;28.53;;;4.50;;
14817;SDS011;7500;57.698;11.986;2023-03-22T20:22:27;29.67;;;5.40;;